BAW19O EGLL-TXKF
Flight info
| Callsign | BAW19O |
|---|---|
| Flight time | 7h 6m |
| Altitude | 38000 |
| Route | GASGU2J GASGU N514 ADKIK DCT JOZMA DCT ARKIL/M082F380 DCT KOGAD DCT 49N020W 4830N03000W 4630N04000W 43N050W/M082F400 38N060W DCT RNGRS MOMOM1 |
| Aircraft | B772/H-SDE1E3FGHIJ3J5J6M1M2P2RWXYZ/LB1D1 |
Departure
| Time | 2026-04-24 13:59 |
|---|---|
| Airport | London Heathrow Airport (EGLL) |
Arrival
| Time | 2026-04-24 21:05 |
|---|---|
| Airport | L.F. Wade International Airport (TXKF) |
| Time | Latitude | Longitude | Altitude | Speed | Heading |
|---|---|---|---|---|---|
| 2026-04-24 12:45 | 51.47108 | -0.46141 | 91 ft | 0 kts | 56° |
| 2026-04-24 13:41 | 51.47106 | -0.46147 | 94 ft | 3 kts | 57° |
| 2026-04-24 13:42 | 51.47095 | -0.46174 | 94 ft | 3 kts | 62° |
| 2026-04-24 13:42 | 51.47086 | -0.46200 | 92 ft | 3 kts | 46° |
| 2026-04-24 13:42 | 51.47075 | -0.46214 | 93 ft | 3 kts | 20° |
| 2026-04-24 13:42 | 51.47060 | -0.46220 | 93 ft | 3 kts | 349° |
| 2026-04-24 13:43 | 51.47043 | -0.46210 | 92 ft | 3 kts | 328° |
| 2026-04-24 13:43 | 51.47026 | -0.46193 | 93 ft | 1 kts | 325° |
| 2026-04-24 13:43 | 51.47022 | -0.46189 | 93 ft | 0 kts | 325° |
| 2026-04-24 13:47 | 51.47040 | -0.46208 | 92 ft | 6 kts | 325° |
| 2026-04-24 13:47 | 51.47080 | -0.46253 | 94 ft | 7 kts | 325° |
| 2026-04-24 13:47 | 51.47135 | -0.46314 | 96 ft | 11 kts | 325° |
| 2026-04-24 13:48 | 51.47200 | -0.46385 | 95 ft | 11 kts | 325° |
| 2026-04-24 13:48 | 51.47237 | -0.46475 | 93 ft | 10 kts | 276° |
| 2026-04-24 13:48 | 51.47238 | -0.46588 | 91 ft | 10 kts | 270° |
| 2026-04-24 13:48 | 51.47238 | -0.46687 | 91 ft | 9 kts | 270° |
| 2026-04-24 13:49 | 51.47238 | -0.46782 | 91 ft | 9 kts | 270° |
| 2026-04-24 13:49 | 51.47219 | -0.46861 | 93 ft | 8 kts | 210° |
| 2026-04-24 13:49 | 51.47163 | -0.46867 | 93 ft | 8 kts | 179° |
| 2026-04-24 13:49 | 51.47080 | -0.46866 | 91 ft | 16 kts | 180° |
| 2026-04-24 13:50 | 51.46974 | -0.46866 | 91 ft | 15 kts | 180° |
| 2026-04-24 13:50 | 51.46869 | -0.46865 | 91 ft | 15 kts | 179° |
| 2026-04-24 13:50 | 51.46779 | -0.46863 | 94 ft | 7 kts | 179° |
| 2026-04-24 13:50 | 51.46746 | -0.46892 | 95 ft | 6 kts | 244° |
| 2026-04-24 13:51 | 51.46746 | -0.46956 | 94 ft | 6 kts | 270° |
| 2026-04-24 13:51 | 51.46745 | -0.47049 | 94 ft | 11 kts | 270° |
| 2026-04-24 13:51 | 51.46745 | -0.47179 | 94 ft | 12 kts | 270° |
| 2026-04-24 13:51 | 51.46745 | -0.47310 | 94 ft | 12 kts | 269° |
| 2026-04-24 13:52 | 51.46744 | -0.47444 | 91 ft | 12 kts | 270° |
| 2026-04-24 13:52 | 51.46744 | -0.47608 | 93 ft | 16 kts | 269° |
| 2026-04-24 13:52 | 51.46743 | -0.47780 | 91 ft | 16 kts | 270° |
| 2026-04-24 13:52 | 51.46743 | -0.47955 | 93 ft | 16 kts | 270° |
| 2026-04-24 13:53 | 51.46742 | -0.48130 | 91 ft | 16 kts | 270° |
| 2026-04-24 13:53 | 51.46742 | -0.48304 | 91 ft | 16 kts | 270° |
| 2026-04-24 13:53 | 51.46741 | -0.48478 | 91 ft | 15 kts | 270° |
| 2026-04-24 13:53 | 51.46741 | -0.48625 | 91 ft | 8 kts | 270° |
| 2026-04-24 13:54 | 51.46738 | -0.48707 | 91 ft | 6 kts | 257° |
| 2026-04-24 13:54 | 51.46709 | -0.48747 | 93 ft | 6 kts | 197° |
| 2026-04-24 13:54 | 51.46672 | -0.48750 | 95 ft | 4 kts | 181° |
| 2026-04-24 13:54 | 51.46645 | -0.48751 | 94 ft | 4 kts | 183° |
| 2026-04-24 13:55 | 51.46624 | -0.48757 | 94 ft | 2 kts | 193° |
| 2026-04-24 13:55 | 51.46615 | -0.48761 | 95 ft | 1 kts | 197° |
| 2026-04-24 13:55 | 51.46608 | -0.48765 | 94 ft | 1 kts | 197° |
| 2026-04-24 13:55 | 51.46606 | -0.48766 | 94 ft | 0 kts | 197° |
| 2026-04-24 13:56 | 51.46592 | -0.48772 | 94 ft | 7 kts | 195° |
| 2026-04-24 13:57 | 51.46538 | -0.48786 | 93 ft | 8 kts | 181° |
| 2026-04-24 13:57 | 51.46493 | -0.48753 | 96 ft | 7 kts | 134° |
| 2026-04-24 13:57 | 51.46478 | -0.48686 | 95 ft | 6 kts | 97° |
| 2026-04-24 13:57 | 51.46478 | -0.48638 | 95 ft | 4 kts | 89° |
| 2026-04-24 13:58 | 51.46479 | -0.48484 | 93 ft | 31 kts | 89° |
| 2026-04-24 13:58 | 51.46481 | -0.47741 | 91 ft | 103 kts | 90° |
| 2026-04-24 13:58 | 51.46487 | -0.46242 | 98 ft | 164 kts | 90° |
| 2026-04-24 13:58 | 51.46457 | -0.44290 | 672 ft | 174 kts | 92° |
| 2026-04-24 13:59 | 51.46369 | -0.42457 | 1822 ft | 156 kts | 92° |
| 2026-04-24 13:59 | 51.46287 | -0.40698 | 2409 ft | 170 kts | 99° |
| 2026-04-24 13:59 | 51.45835 | -0.38859 | 2905 ft | 185 kts | 124° |
| 2026-04-24 13:59 | 51.44969 | -0.37331 | 3530 ft | 188 kts | 130° |
| 2026-04-24 14:00 | 51.44139 | -0.35641 | 4107 ft | 195 kts | 124° |
| 2026-04-24 14:00 | 51.43255 | -0.33965 | 4666 ft | 202 kts | 136° |
| 2026-04-24 14:00 | 51.42004 | -0.32939 | 5313 ft | 202 kts | 165° |
| 2026-04-24 14:00 | 51.40634 | -0.32782 | 5870 ft | 201 kts | 181° |
| 2026-04-24 14:01 | 51.39224 | -0.33223 | 5972 ft | 212 kts | 196° |
| 2026-04-24 14:01 | 51.37882 | -0.34250 | 5967 ft | 216 kts | 212° |
| 2026-04-24 14:01 | 51.36705 | -0.35785 | 5997 ft | 228 kts | 219° |
| 2026-04-24 14:01 | 51.35449 | -0.37585 | 6129 ft | 252 kts | 220° |
| 2026-04-24 14:02 | 51.34129 | -0.39479 | 6726 ft | 256 kts | 219° |
| 2026-04-24 14:02 | 51.32798 | -0.41377 | 7411 ft | 257 kts | 219° |
| 2026-04-24 14:02 | 51.31525 | -0.43392 | 8059 ft | 261 kts | 229° |
| 2026-04-24 14:02 | 51.30520 | -0.45834 | 8677 ft | 265 kts | 240° |
| 2026-04-24 14:03 | 51.29783 | -0.48551 | 9324 ft | 268 kts | 249° |
| 2026-04-24 14:03 | 51.29240 | -0.51408 | 9939 ft | 271 kts | 252° |
| 2026-04-24 14:03 | 51.28732 | -0.54325 | 10471 ft | 274 kts | 252° |
| 2026-04-24 14:03 | 51.28199 | -0.57365 | 10497 ft | 299 kts | 251° |
| 2026-04-24 14:04 | 51.27580 | -0.60683 | 10469 ft | 322 kts | 251° |
| 2026-04-24 14:04 | 51.26894 | -0.64232 | 10453 ft | 345 kts | 251° |
| 2026-04-24 14:04 | 51.26182 | -0.67891 | 10394 ft | 349 kts | 251° |
| 2026-04-24 14:04 | 51.25462 | -0.71601 | 10376 ft | 350 kts | 251° |
| 2026-04-24 14:05 | 51.24740 | -0.75318 | 10377 ft | 349 kts | 251° |
| 2026-04-24 14:05 | 51.24016 | -0.79022 | 10503 ft | 352 kts | 251° |
| 2026-04-24 14:05 | 51.23285 | -0.82801 | 10979 ft | 359 kts | 251° |
| 2026-04-24 14:05 | 51.22541 | -0.86611 | 11742 ft | 358 kts | 250° |
| 2026-04-24 14:06 | 51.21796 | -0.90409 | 12415 ft | 361 kts | 250° |
| 2026-04-24 14:06 | 51.21039 | -0.94253 | 13003 ft | 363 kts | 250° |
| 2026-04-24 14:06 | 51.19981 | -0.97866 | 13439 ft | 360 kts | 232° |
| 2026-04-24 14:06 | 51.18404 | -1.01021 | 13985 ft | 367 kts | 229° |
| 2026-04-24 14:07 | 51.16800 | -1.04156 | 14937 ft | 363 kts | 229° |
| 2026-04-24 14:07 | 51.15218 | -1.07302 | 15805 ft | 365 kts | 230° |
| 2026-04-24 14:07 | 51.13627 | -1.10512 | 16522 ft | 370 kts | 230° |
| 2026-04-24 14:07 | 51.12041 | -1.13749 | 17303 ft | 372 kts | 231° |
| 2026-04-24 14:08 | 51.10450 | -1.17002 | 18112 ft | 373 kts | 231° |
| 2026-04-24 14:08 | 51.08850 | -1.20266 | 18840 ft | 375 kts | 231° |
| 2026-04-24 14:08 | 51.07341 | -1.23597 | 19404 ft | 379 kts | 238° |
| 2026-04-24 14:08 | 51.06165 | -1.27382 | 19936 ft | 384 kts | 247° |
| 2026-04-24 14:09 | 51.05315 | -1.31419 | 20529 ft | 387 kts | 255° |
| 2026-04-24 14:09 | 51.04684 | -1.35571 | 21116 ft | 389 kts | 256° |
| 2026-04-24 14:09 | 51.04063 | -1.39780 | 21733 ft | 391 kts | 256° |
| 2026-04-24 14:09 | 51.03442 | -1.44014 | 22306 ft | 394 kts | 257° |
| 2026-04-24 14:10 | 51.03030 | -1.46817 | 22695 ft | 395 kts | 257° |
| 2026-04-24 14:10 | 51.02179 | -1.52538 | 23468 ft | 399 kts | 257° |
| 2026-04-24 14:10 | 51.01532 | -1.56836 | 23985 ft | 402 kts | 257° |
| 2026-04-24 14:10 | 51.00876 | -1.61164 | 24442 ft | 404 kts | 257° |
| 2026-04-24 14:11 | 51.00213 | -1.65521 | 24898 ft | 407 kts | 257° |
| 2026-04-24 14:11 | 50.99545 | -1.69894 | 25351 ft | 410 kts | 257° |
| 2026-04-24 14:11 | 50.98184 | -1.78742 | 26251 ft | 415 kts | 257° |
| 2026-04-24 14:12 | 50.97495 | -1.83202 | 26693 ft | 418 kts | 257° |
| 2026-04-24 14:12 | 50.96800 | -1.87689 | 27126 ft | 420 kts | 257° |
| 2026-04-24 14:12 | 50.96098 | -1.92211 | 27550 ft | 423 kts | 257° |
| 2026-04-24 14:12 | 50.95399 | -1.96698 | 27976 ft | 426 kts | 257° |
| 2026-04-24 14:13 | 50.94676 | -2.01327 | 28402 ft | 429 kts | 256° |
| 2026-04-24 14:13 | 50.93965 | -2.05870 | 28811 ft | 431 kts | 256° |
| 2026-04-24 14:13 | 50.93237 | -2.10503 | 29225 ft | 434 kts | 256° |
| 2026-04-24 14:13 | 50.92502 | -2.15170 | 29621 ft | 437 kts | 256° |
| 2026-04-24 14:14 | 50.91763 | -2.19850 | 30003 ft | 439 kts | 256° |
| 2026-04-24 14:14 | 50.91017 | -2.24559 | 30378 ft | 442 kts | 256° |
| 2026-04-24 14:14 | 50.89503 | -2.34073 | 31003 ft | 447 kts | 256° |
| 2026-04-24 14:15 | 50.88737 | -2.38869 | 31298 ft | 449 kts | 256° |
| 2026-04-24 14:15 | 50.87967 | -2.43676 | 31569 ft | 452 kts | 256° |
| 2026-04-24 14:15 | 50.87189 | -2.48517 | 31836 ft | 454 kts | 256° |
| 2026-04-24 14:15 | 50.86416 | -2.53312 | 32096 ft | 456 kts | 256° |
| 2026-04-24 14:16 | 50.85628 | -2.58185 | 32347 ft | 458 kts | 256° |
| 2026-04-24 14:16 | 50.84835 | -2.63078 | 32581 ft | 460 kts | 255° |
| 2026-04-24 14:16 | 50.84034 | -2.68008 | 32808 ft | 462 kts | 255° |
| 2026-04-24 14:17 | 50.82424 | -2.77866 | 33360 ft | 463 kts | 255° |
| 2026-04-24 14:17 | 50.81617 | -2.82784 | 33717 ft | 461 kts | 255° |
| 2026-04-24 14:17 | 50.80001 | -2.92597 | 34333 ft | 461 kts | 255° |
| 2026-04-24 14:18 | 50.79192 | -2.97490 | 34587 ft | 461 kts | 255° |
| 2026-04-24 14:18 | 50.78378 | -3.02396 | 34862 ft | 460 kts | 255° |
| 2026-04-24 14:18 | 50.77566 | -3.07274 | 35119 ft | 460 kts | 254° |
| 2026-04-24 14:18 | 50.76750 | -3.12164 | 35371 ft | 460 kts | 254° |
| 2026-04-24 14:19 | 50.76199 | -3.15464 | 35545 ft | 460 kts | 254° |
| 2026-04-24 14:19 | 50.75115 | -3.21925 | 35899 ft | 459 kts | 254° |
| 2026-04-24 14:19 | 50.74295 | -3.26798 | 36155 ft | 459 kts | 254° |
| 2026-04-24 14:19 | 50.73473 | -3.31669 | 36405 ft | 459 kts | 254° |
| 2026-04-24 14:20 | 50.72649 | -3.36539 | 36652 ft | 458 kts | 254° |
| 2026-04-24 14:20 | 50.71824 | -3.41401 | 36898 ft | 458 kts | 254° |
| 2026-04-24 14:20 | 50.71009 | -3.46190 | 37143 ft | 458 kts | 254° |
| 2026-04-24 14:20 | 50.70184 | -3.51024 | 37387 ft | 457 kts | 253° |
| 2026-04-24 14:21 | 50.69354 | -3.55877 | 37618 ft | 457 kts | 253° |
| 2026-04-24 14:21 | 50.68525 | -3.60704 | 37852 ft | 457 kts | 253° |
| 2026-04-24 14:21 | 50.67694 | -3.65535 | 38066 ft | 456 kts | 253° |
| 2026-04-24 14:21 | 50.66859 | -3.70378 | 38171 ft | 458 kts | 253° |
| 2026-04-24 14:22 | 50.65171 | -3.80129 | 38225 ft | 461 kts | 253° |
| 2026-04-24 14:23 | 50.63060 | -3.94797 | 38228 ft | 456 kts | 262° |
| 2026-04-24 14:23 | 50.62864 | -4.04706 | 38231 ft | 455 kts | 270° |
| 2026-04-24 14:24 | 50.63126 | -4.14675 | 38231 ft | 455 kts | 270° |
| 2026-04-24 14:24 | 50.63392 | -4.24652 | 38228 ft | 456 kts | 270° |
| 2026-04-24 14:25 | 50.63592 | -4.33031 | 38213 ft | 457 kts | 269° |
| 2026-04-24 14:25 | 50.63809 | -4.43060 | 38215 ft | 459 kts | 269° |
| 2026-04-24 14:26 | 50.64012 | -4.53058 | 38220 ft | 461 kts | 269° |
| 2026-04-24 14:26 | 50.64210 | -4.63231 | 38200 ft | 463 kts | 269° |
| 2026-04-24 14:27 | 50.64399 | -4.73323 | 38201 ft | 464 kts | 269° |
| 2026-04-24 14:27 | 50.64580 | -4.83500 | 38213 ft | 465 kts | 269° |
| 2026-04-24 14:28 | 50.64754 | -4.93687 | 38194 ft | 465 kts | 269° |
| 2026-04-24 14:28 | 50.64918 | -5.03895 | 38197 ft | 466 kts | 269° |
| 2026-04-24 14:29 | 50.65073 | -5.14120 | 38197 ft | 466 kts | 269° |
| 2026-04-24 14:29 | 50.65219 | -5.24267 | 38198 ft | 466 kts | 268° |
| 2026-04-24 14:30 | 50.65356 | -5.34488 | 38202 ft | 467 kts | 268° |
| 2026-04-24 14:30 | 50.65485 | -5.44714 | 38200 ft | 467 kts | 268° |
| 2026-04-24 14:31 | 50.65605 | -5.54964 | 38201 ft | 467 kts | 268° |
| 2026-04-24 14:31 | 50.65716 | -5.65210 | 38198 ft | 468 kts | 268° |
| 2026-04-24 14:32 | 50.65818 | -5.75462 | 38194 ft | 468 kts | 268° |
| 2026-04-24 14:32 | 50.65911 | -5.85716 | 38191 ft | 468 kts | 268° |
| 2026-04-24 14:33 | 50.65995 | -5.95982 | 38194 ft | 469 kts | 267° |
| 2026-04-24 14:33 | 50.66071 | -6.06258 | 38191 ft | 469 kts | 267° |
| 2026-04-24 14:34 | 50.66137 | -6.16543 | 38191 ft | 469 kts | 267° |
| 2026-04-24 14:34 | 50.66194 | -6.26781 | 38193 ft | 469 kts | 267° |
| 2026-04-24 14:35 | 50.66242 | -6.37081 | 38190 ft | 470 kts | 267° |
| 2026-04-24 14:35 | 50.66281 | -6.47389 | 38187 ft | 470 kts | 266° |
| 2026-04-24 14:36 | 50.66312 | -6.57703 | 38186 ft | 471 kts | 266° |
| 2026-04-24 14:36 | 50.66333 | -6.68016 | 38185 ft | 471 kts | 266° |
| 2026-04-24 14:37 | 50.66344 | -6.78356 | 38190 ft | 471 kts | 266° |
| 2026-04-24 14:37 | 50.66347 | -6.88630 | 38182 ft | 472 kts | 266° |
| 2026-04-24 14:38 | 50.66341 | -6.98987 | 38179 ft | 472 kts | 265° |
| 2026-04-24 14:38 | 50.66325 | -7.09363 | 38182 ft | 473 kts | 265° |
| 2026-04-24 14:39 | 50.66301 | -7.19672 | 38178 ft | 473 kts | 265° |
| 2026-04-24 14:39 | 50.66267 | -7.30055 | 38178 ft | 474 kts | 265° |
| 2026-04-24 14:40 | 50.66224 | -7.40458 | 38174 ft | 474 kts | 265° |
| 2026-04-24 14:40 | 50.66171 | -7.50855 | 38174 ft | 475 kts | 265° |
| 2026-04-24 14:41 | 50.66110 | -7.61277 | 38173 ft | 475 kts | 264° |
| 2026-04-24 14:41 | 50.66039 | -7.71689 | 38171 ft | 475 kts | 264° |
| 2026-04-24 14:42 | 50.65961 | -7.82044 | 38177 ft | 470 kts | 264° |
| 2026-04-24 14:42 | 50.65873 | -7.92320 | 38158 ft | 468 kts | 264° |
| 2026-04-24 14:43 | 50.65523 | -8.02431 | 38163 ft | 461 kts | 256° |
| 2026-04-24 14:43 | 50.64254 | -8.12258 | 38163 ft | 457 kts | 252° |
| 2026-04-24 14:44 | 50.62896 | -8.22031 | 38162 ft | 457 kts | 252° |
| 2026-04-24 14:44 | 50.61552 | -8.31819 | 38165 ft | 457 kts | 252° |
| 2026-04-24 14:45 | 50.60219 | -8.41621 | 38160 ft | 458 kts | 252° |
| 2026-04-24 14:45 | 50.58884 | -8.51421 | 38164 ft | 458 kts | 252° |
| 2026-04-24 14:46 | 50.57539 | -8.61239 | 38157 ft | 459 kts | 252° |
| 2026-04-24 14:46 | 50.56183 | -8.71069 | 38154 ft | 460 kts | 251° |
| 2026-04-24 14:47 | 50.54817 | -8.80897 | 38152 ft | 461 kts | 251° |
| 2026-04-24 14:47 | 50.53441 | -8.90736 | 38148 ft | 461 kts | 251° |
| 2026-04-24 14:48 | 50.52065 | -9.00507 | 38149 ft | 461 kts | 251° |
| 2026-04-24 14:48 | 50.50670 | -9.10354 | 38147 ft | 461 kts | 251° |
| 2026-04-24 14:49 | 50.49267 | -9.20185 | 38143 ft | 461 kts | 250° |
| 2026-04-24 14:49 | 50.47856 | -9.30012 | 38146 ft | 461 kts | 250° |
| 2026-04-24 14:50 | 50.46435 | -9.39843 | 38134 ft | 461 kts | 250° |
| 2026-04-24 14:50 | 50.45010 | -9.49641 | 38134 ft | 460 kts | 250° |
| 2026-04-24 14:51 | 50.43578 | -9.59430 | 38135 ft | 460 kts | 250° |
| 2026-04-24 14:51 | 50.42147 | -9.69138 | 38131 ft | 459 kts | 250° |
| 2026-04-24 14:52 | 50.40702 | -9.78893 | 38126 ft | 459 kts | 250° |
| 2026-04-24 14:52 | 50.39249 | -9.88630 | 38128 ft | 459 kts | 249° |
| 2026-04-24 14:53 | 50.37789 | -9.98357 | 38122 ft | 458 kts | 249° |
| 2026-04-24 14:53 | 50.36322 | -10.08073 | 38127 ft | 458 kts | 249° |
| 2026-04-24 14:54 | 50.34848 | -10.17771 | 38117 ft | 458 kts | 249° |
| 2026-04-24 14:54 | 50.33365 | -10.27475 | 38124 ft | 458 kts | 249° |
| 2026-04-24 14:55 | 50.32125 | -10.35540 | 38120 ft | 458 kts | 249° |
| 2026-04-24 14:55 | 50.30372 | -10.46873 | 38114 ft | 459 kts | 249° |
| 2026-04-24 14:56 | 50.28872 | -10.56510 | 38118 ft | 459 kts | 249° |
| 2026-04-24 14:56 | 50.27349 | -10.66232 | 38113 ft | 460 kts | 249° |
| 2026-04-24 14:57 | 50.25816 | -10.75966 | 38114 ft | 461 kts | 249° |
| 2026-04-24 14:57 | 50.24271 | -10.85715 | 38110 ft | 462 kts | 249° |
| 2026-04-24 14:58 | 50.22715 | -10.95479 | 38113 ft | 463 kts | 250° |
| 2026-04-24 14:58 | 50.21149 | -11.05246 | 38103 ft | 464 kts | 250° |
| 2026-04-24 14:59 | 50.19570 | -11.15035 | 38109 ft | 465 kts | 250° |
| 2026-04-24 14:59 | 50.17982 | -11.24825 | 38107 ft | 466 kts | 250° |
| 2026-04-24 15:00 | 50.16394 | -11.34561 | 38093 ft | 466 kts | 250° |
| 2026-04-24 15:00 | 50.14785 | -11.44366 | 38094 ft | 466 kts | 250° |
| 2026-04-24 15:01 | 50.13170 | -11.54146 | 38107 ft | 466 kts | 250° |
| 2026-04-24 15:01 | 50.11548 | -11.63917 | 38101 ft | 466 kts | 250° |
| 2026-04-24 15:02 | 50.09918 | -11.73683 | 38102 ft | 466 kts | 250° |
| 2026-04-24 15:02 | 50.08279 | -11.83437 | 38095 ft | 465 kts | 250° |
| 2026-04-24 15:03 | 50.06911 | -11.91542 | 38094 ft | 465 kts | 250° |
| 2026-04-24 15:03 | 50.04981 | -12.02913 | 38090 ft | 465 kts | 250° |
| 2026-04-24 15:04 | 50.03332 | -12.12568 | 38091 ft | 464 kts | 250° |
| 2026-04-24 15:04 | 50.01667 | -12.22263 | 38089 ft | 464 kts | 250° |
| 2026-04-24 15:05 | 49.99995 | -12.31948 | 38089 ft | 464 kts | 250° |
| 2026-04-24 15:05 | 49.98314 | -12.41625 | 38089 ft | 463 kts | 250° |
| 2026-04-24 15:06 | 49.96627 | -12.51289 | 38090 ft | 463 kts | 250° |
| 2026-04-24 15:06 | 49.94930 | -12.60954 | 38084 ft | 463 kts | 250° |
| 2026-04-24 15:07 | 49.93227 | -12.70608 | 38085 ft | 463 kts | 250° |
| 2026-04-24 15:07 | 49.91515 | -12.80251 | 38084 ft | 463 kts | 250° |
| 2026-04-24 15:08 | 49.89808 | -12.89817 | 38084 ft | 464 kts | 250° |
| 2026-04-24 15:08 | 49.88076 | -12.99476 | 38078 ft | 464 kts | 250° |
| 2026-04-24 15:09 | 49.86337 | -13.09123 | 38079 ft | 464 kts | 250° |
| 2026-04-24 15:09 | 49.84590 | -13.18757 | 38077 ft | 464 kts | 250° |
| 2026-04-24 15:10 | 49.82833 | -13.28399 | 38080 ft | 465 kts | 250° |
| 2026-04-24 15:10 | 49.81068 | -13.38032 | 38074 ft | 465 kts | 250° |
| 2026-04-24 15:11 | 49.79296 | -13.47656 | 38075 ft | 465 kts | 250° |
| 2026-04-24 15:11 | 49.77515 | -13.57274 | 38074 ft | 465 kts | 250° |
| 2026-04-24 15:12 | 49.76027 | -13.65273 | 38072 ft | 466 kts | 250° |
| 2026-04-24 15:12 | 49.73325 | -13.79712 | 38069 ft | 466 kts | 250° |
| 2026-04-24 15:13 | 49.71219 | -13.90892 | 38066 ft | 466 kts | 250° |
| 2026-04-24 15:13 | 49.69695 | -13.98940 | 38065 ft | 466 kts | 250° |
| 2026-04-24 15:14 | 49.67867 | -14.08544 | 38065 ft | 466 kts | 250° |
| 2026-04-24 15:14 | 49.66045 | -14.18073 | 38060 ft | 465 kts | 250° |
| 2026-04-24 15:15 | 49.64203 | -14.27656 | 38058 ft | 465 kts | 250° |
| 2026-04-24 15:15 | 49.62355 | -14.37224 | 38058 ft | 465 kts | 250° |
| 2026-04-24 15:16 | 49.60503 | -14.46764 | 38058 ft | 464 kts | 250° |
| 2026-04-24 15:16 | 49.58640 | -14.56310 | 38048 ft | 464 kts | 250° |
| 2026-04-24 15:17 | 49.56777 | -14.65812 | 38046 ft | 463 kts | 250° |
| 2026-04-24 15:17 | 49.54905 | -14.75314 | 38049 ft | 463 kts | 250° |
| 2026-04-24 15:18 | 49.53030 | -14.84784 | 38043 ft | 462 kts | 250° |
| 2026-04-24 15:18 | 49.51162 | -14.94184 | 38048 ft | 462 kts | 250° |
| 2026-04-24 15:19 | 49.49624 | -15.03807 | 38034 ft | 465 kts | 259° |
| 2026-04-24 15:19 | 49.48857 | -15.13695 | 38044 ft | 465 kts | 261° |
| 2026-04-24 15:20 | 49.48118 | -15.23577 | 38029 ft | 465 kts | 260° |
| 2026-04-24 15:20 | 49.47347 | -15.33466 | 38032 ft | 465 kts | 260° |
| 2026-04-24 15:21 | 49.46552 | -15.43335 | 38031 ft | 465 kts | 260° |
| 2026-04-24 15:21 | 49.45744 | -15.53189 | 38030 ft | 465 kts | 260° |
| 2026-04-24 15:22 | 49.44889 | -15.63512 | 38023 ft | 465 kts | 260° |
| 2026-04-24 15:23 | 49.43692 | -15.77785 | 38020 ft | 465 kts | 260° |
| 2026-04-24 15:23 | 49.42435 | -15.92550 | 38018 ft | 464 kts | 260° |
| 2026-04-24 15:25 | 49.40447 | -16.15457 | 38010 ft | 463 kts | 259° |
| 2026-04-24 15:26 | 49.38128 | -16.41520 | 38006 ft | 462 kts | 259° |
| 2026-04-24 15:27 | 49.35460 | -16.70689 | 37988 ft | 460 kts | 259° |
| 2026-04-24 15:29 | 49.32718 | -16.99826 | 37973 ft | 459 kts | 259° |
| 2026-04-24 15:31 | 49.29441 | -17.33648 | 37979 ft | 459 kts | 259° |
| 2026-04-24 15:33 | 49.25567 | -17.72313 | 37958 ft | 458 kts | 259° |
| 2026-04-24 15:34 | 49.23090 | -17.96351 | 37948 ft | 457 kts | 259° |
| 2026-04-24 15:35 | 49.20573 | -18.20278 | 37939 ft | 456 kts | 258° |
| 2026-04-24 15:36 | 49.19550 | -18.29868 | 37936 ft | 456 kts | 258° |
| 2026-04-24 15:36 | 49.18001 | -18.44235 | 37931 ft | 456 kts | 258° |
| 2026-04-24 15:37 | 49.16961 | -18.53788 | 37935 ft | 456 kts | 258° |
| 2026-04-24 15:37 | 49.15912 | -18.63341 | 37931 ft | 456 kts | 258° |
| 2026-04-24 15:38 | 49.14863 | -18.72820 | 37924 ft | 455 kts | 258° |
| 2026-04-24 15:38 | 49.13800 | -18.82354 | 37922 ft | 455 kts | 258° |
| 2026-04-24 15:39 | 49.12729 | -18.91886 | 37923 ft | 455 kts | 258° |
| 2026-04-24 15:39 | 49.11652 | -19.01403 | 37919 ft | 455 kts | 258° |
| 2026-04-24 15:40 | 49.10567 | -19.10909 | 37916 ft | 454 kts | 258° |
| 2026-04-24 15:40 | 49.09474 | -19.20410 | 37910 ft | 454 kts | 258° |
| 2026-04-24 15:41 | 49.08375 | -19.29897 | 37905 ft | 454 kts | 258° |
| 2026-04-24 15:41 | 49.07270 | -19.39369 | 37907 ft | 453 kts | 258° |
| 2026-04-24 15:42 | 49.06158 | -19.48828 | 37903 ft | 453 kts | 258° |
| 2026-04-24 15:42 | 49.05044 | -19.58227 | 37905 ft | 453 kts | 258° |
| 2026-04-24 15:43 | 49.03918 | -19.67669 | 37901 ft | 452 kts | 258° |
| 2026-04-24 15:43 | 49.02785 | -19.77098 | 37901 ft | 452 kts | 258° |
| 2026-04-24 15:44 | 49.01644 | -19.86526 | 37895 ft | 452 kts | 258° |
| 2026-04-24 15:44 | 49.00500 | -19.95925 | 37892 ft | 451 kts | 258° |
| 2026-04-24 15:45 | 48.99884 | -20.05454 | 37892 ft | 453 kts | 267° |
| 2026-04-24 15:45 | 48.99840 | -20.15053 | 37891 ft | 453 kts | 268° |
| 2026-04-24 15:46 | 48.99795 | -20.24651 | 37886 ft | 453 kts | 267° |
| 2026-04-24 15:46 | 48.99723 | -20.34194 | 37882 ft | 454 kts | 267° |
| 2026-04-24 15:47 | 48.99631 | -20.43811 | 37884 ft | 454 kts | 267° |
| 2026-04-24 15:47 | 48.99528 | -20.53422 | 37879 ft | 454 kts | 267° |
| 2026-04-24 15:48 | 48.99417 | -20.63039 | 37876 ft | 454 kts | 267° |
| 2026-04-24 15:48 | 48.99298 | -20.72663 | 37875 ft | 454 kts | 267° |
| 2026-04-24 15:49 | 48.99172 | -20.82282 | 37873 ft | 454 kts | 267° |
| 2026-04-24 15:49 | 48.99039 | -20.91826 | 37869 ft | 454 kts | 267° |
| 2026-04-24 15:50 | 48.98897 | -21.01428 | 37864 ft | 453 kts | 267° |
| 2026-04-24 15:50 | 48.98747 | -21.11032 | 37861 ft | 453 kts | 266° |
| 2026-04-24 15:51 | 48.98589 | -21.20621 | 37861 ft | 453 kts | 266° |
| 2026-04-24 15:51 | 48.98423 | -21.30203 | 37858 ft | 452 kts | 266° |
| 2026-04-24 15:52 | 48.98250 | -21.39784 | 37854 ft | 452 kts | 266° |
| 2026-04-24 15:52 | 48.98069 | -21.49354 | 37860 ft | 452 kts | 266° |
| 2026-04-24 15:53 | 48.97881 | -21.58865 | 37851 ft | 452 kts | 266° |
| 2026-04-24 15:53 | 48.97684 | -21.68420 | 37854 ft | 452 kts | 266° |
| 2026-04-24 15:54 | 48.97479 | -21.77984 | 37848 ft | 451 kts | 266° |
| 2026-04-24 15:54 | 48.97266 | -21.87541 | 37846 ft | 451 kts | 266° |
| 2026-04-24 15:55 | 48.97046 | -21.97088 | 37839 ft | 451 kts | 266° |
| 2026-04-24 15:55 | 48.96819 | -22.06572 | 37840 ft | 451 kts | 266° |
| 2026-04-24 15:56 | 48.96584 | -22.16112 | 37838 ft | 451 kts | 266° |
| 2026-04-24 15:56 | 48.96340 | -22.25656 | 37836 ft | 451 kts | 266° |
| 2026-04-24 15:57 | 48.96088 | -22.35191 | 37832 ft | 451 kts | 266° |
| 2026-04-24 15:57 | 48.95829 | -22.44715 | 37829 ft | 450 kts | 266° |
| 2026-04-24 15:58 | 48.95562 | -22.54236 | 37826 ft | 450 kts | 266° |
| 2026-04-24 15:58 | 48.95288 | -22.63746 | 37828 ft | 449 kts | 266° |
| 2026-04-24 15:59 | 48.95008 | -22.73182 | 37825 ft | 449 kts | 266° |
| 2026-04-24 15:59 | 48.94718 | -22.82673 | 37816 ft | 449 kts | 266° |
| 2026-04-24 16:00 | 48.94422 | -22.92147 | 37813 ft | 448 kts | 266° |
| 2026-04-24 16:00 | 48.94169 | -23.00027 | 37802 ft | 448 kts | 266° |
| 2026-04-24 16:01 | 48.93860 | -23.09468 | 37814 ft | 446 kts | 265° |
| 2026-04-24 16:01 | 48.93542 | -23.18889 | 37818 ft | 446 kts | 265° |
| 2026-04-24 16:02 | 48.93217 | -23.28321 | 37805 ft | 447 kts | 265° |
| 2026-04-24 16:02 | 48.92883 | -23.37765 | 37808 ft | 447 kts | 265° |
| 2026-04-24 16:03 | 48.92542 | -23.47215 | 37802 ft | 448 kts | 265° |
| 2026-04-24 16:03 | 48.92194 | -23.56635 | 37806 ft | 449 kts | 265° |
| 2026-04-24 16:04 | 48.91836 | -23.66128 | 37805 ft | 449 kts | 265° |
| 2026-04-24 16:04 | 48.91470 | -23.75617 | 37805 ft | 450 kts | 265° |
| 2026-04-24 16:05 | 48.90905 | -23.89882 | 37801 ft | 451 kts | 265° |
| 2026-04-24 16:06 | 48.90321 | -24.04158 | 37796 ft | 451 kts | 265° |
| 2026-04-24 16:07 | 48.89722 | -24.18392 | 37776 ft | 452 kts | 265° |
| 2026-04-24 16:07 | 48.89102 | -24.32688 | 37781 ft | 452 kts | 265° |
| 2026-04-24 16:08 | 48.88465 | -24.46977 | 37767 ft | 452 kts | 265° |
| 2026-04-24 16:09 | 48.87810 | -24.61282 | 37767 ft | 452 kts | 265° |
| 2026-04-24 16:09 | 48.87363 | -24.70808 | 37765 ft | 453 kts | 265° |
| 2026-04-24 16:11 | 48.86209 | -24.94683 | 37760 ft | 453 kts | 264° |
| 2026-04-24 16:11 | 48.85734 | -25.04230 | 37755 ft | 453 kts | 264° |
| 2026-04-24 16:12 | 48.85005 | -25.18558 | 37752 ft | 454 kts | 264° |
| 2026-04-24 16:13 | 48.84261 | -25.32835 | 37748 ft | 454 kts | 264° |
| 2026-04-24 16:14 | 48.83236 | -25.51981 | 37741 ft | 455 kts | 264° |
| 2026-04-24 16:14 | 48.82446 | -25.66343 | 37744 ft | 455 kts | 264° |
| 2026-04-24 16:15 | 48.81640 | -25.80664 | 37734 ft | 456 kts | 264° |
| 2026-04-24 16:16 | 48.80812 | -25.95052 | 37734 ft | 457 kts | 264° |
| 2026-04-24 16:17 | 48.79389 | -26.19068 | 37735 ft | 457 kts | 264° |
| 2026-04-24 16:18 | 48.78213 | -26.38305 | 37733 ft | 458 kts | 264° |
| 2026-04-24 16:19 | 48.77309 | -26.52748 | 37727 ft | 459 kts | 264° |
| 2026-04-24 16:20 | 48.76389 | -26.67146 | 37726 ft | 460 kts | 263° |
| 2026-04-24 16:20 | 48.75446 | -26.81616 | 37728 ft | 460 kts | 263° |
| 2026-04-24 16:21 | 48.74481 | -26.96142 | 37727 ft | 461 kts | 263° |
| 2026-04-24 16:22 | 48.73833 | -27.05742 | 37725 ft | 461 kts | 263° |
| 2026-04-24 16:22 | 48.72839 | -27.20248 | 37720 ft | 462 kts | 263° |
| 2026-04-24 16:23 | 48.72164 | -27.29934 | 37723 ft | 462 kts | 263° |
| 2026-04-24 16:24 | 48.71137 | -27.44465 | 37718 ft | 463 kts | 263° |
| 2026-04-24 16:24 | 48.70440 | -27.54173 | 37717 ft | 464 kts | 263° |
| 2026-04-24 16:25 | 48.69734 | -27.63891 | 37718 ft | 464 kts | 263° |
| 2026-04-24 16:25 | 48.69023 | -27.73561 | 37719 ft | 465 kts | 263° |
| 2026-04-24 16:26 | 48.67934 | -27.88158 | 37720 ft | 465 kts | 263° |
| 2026-04-24 16:27 | 48.66827 | -28.02758 | 37719 ft | 465 kts | 263° |
| 2026-04-24 16:27 | 48.66078 | -28.12490 | 37722 ft | 465 kts | 263° |
| 2026-04-24 16:28 | 48.65325 | -28.22168 | 37714 ft | 466 kts | 263° |
| 2026-04-24 16:28 | 48.64174 | -28.36756 | 37717 ft | 466 kts | 263° |
| 2026-04-24 16:29 | 48.63396 | -28.46479 | 37722 ft | 466 kts | 263° |
| 2026-04-24 16:30 | 48.61814 | -28.65947 | 37719 ft | 467 kts | 263° |
| 2026-04-24 16:30 | 48.61009 | -28.75685 | 37724 ft | 467 kts | 263° |
| 2026-04-24 16:31 | 48.60197 | -28.85414 | 37719 ft | 467 kts | 262° |
| 2026-04-24 16:31 | 48.59375 | -28.95164 | 37720 ft | 467 kts | 262° |
| 2026-04-24 16:32 | 48.58546 | -29.04898 | 37719 ft | 468 kts | 262° |
| 2026-04-24 16:32 | 48.57711 | -29.14600 | 37722 ft | 468 kts | 262° |
| 2026-04-24 16:33 | 48.56863 | -29.24352 | 37720 ft | 468 kts | 262° |
| 2026-04-24 16:33 | 48.56005 | -29.34126 | 37721 ft | 469 kts | 262° |
| 2026-04-24 16:34 | 48.55140 | -29.43885 | 37720 ft | 469 kts | 262° |
| 2026-04-24 16:34 | 48.54271 | -29.53588 | 37723 ft | 469 kts | 262° |
| 2026-04-24 16:35 | 48.53387 | -29.63363 | 37719 ft | 469 kts | 262° |
| 2026-04-24 16:35 | 48.52497 | -29.73112 | 37721 ft | 469 kts | 262° |
| 2026-04-24 16:36 | 48.51597 | -29.82882 | 37722 ft | 470 kts | 262° |
| 2026-04-24 16:36 | 48.50695 | -29.92593 | 37720 ft | 470 kts | 262° |
| 2026-04-24 16:37 | 48.49696 | -30.02332 | 37718 ft | 470 kts | 258° |
| 2026-04-24 16:37 | 48.48256 | -30.11956 | 37723 ft | 470 kts | 257° |
| 2026-04-24 16:38 | 48.46761 | -30.21563 | 37723 ft | 471 kts | 257° |
| 2026-04-24 16:38 | 48.45272 | -30.31179 | 37725 ft | 471 kts | 257° |
| 2026-04-24 16:39 | 48.43789 | -30.40804 | 37725 ft | 472 kts | 257° |
| 2026-04-24 16:39 | 48.42305 | -30.50425 | 37727 ft | 472 kts | 257° |
| 2026-04-24 16:40 | 48.40820 | -30.59990 | 37717 ft | 473 kts | 257° |
| 2026-04-24 16:40 | 48.39316 | -30.69620 | 37721 ft | 473 kts | 257° |
| 2026-04-24 16:41 | 48.37802 | -30.79253 | 37717 ft | 473 kts | 257° |
| 2026-04-24 16:41 | 48.36278 | -30.88891 | 37724 ft | 473 kts | 257° |
| 2026-04-24 16:42 | 48.34747 | -30.98514 | 37722 ft | 473 kts | 257° |
| 2026-04-24 16:42 | 48.33208 | -31.08132 | 37722 ft | 473 kts | 257° |
| 2026-04-24 16:43 | 48.31673 | -31.17676 | 37722 ft | 473 kts | 257° |
| 2026-04-24 16:43 | 48.30122 | -31.27261 | 37723 ft | 472 kts | 257° |
| 2026-04-24 16:44 | 48.28563 | -31.36841 | 37723 ft | 472 kts | 257° |
| 2026-04-24 16:44 | 48.26993 | -31.46431 | 37728 ft | 472 kts | 257° |
| 2026-04-24 16:45 | 48.25417 | -31.56002 | 37727 ft | 472 kts | 257° |
| 2026-04-24 16:45 | 48.23833 | -31.65566 | 37724 ft | 472 kts | 257° |
| 2026-04-24 16:46 | 48.22244 | -31.75111 | 37724 ft | 471 kts | 257° |
| 2026-04-24 16:46 | 48.20659 | -31.84580 | 37726 ft | 471 kts | 257° |
| 2026-04-24 16:47 | 48.19054 | -31.94115 | 37728 ft | 471 kts | 257° |
| 2026-04-24 16:47 | 48.17441 | -32.03638 | 37725 ft | 471 kts | 257° |
| 2026-04-24 16:48 | 48.15824 | -32.13144 | 37729 ft | 471 kts | 257° |
| 2026-04-24 16:48 | 48.14470 | -32.21051 | 37730 ft | 471 kts | 257° |
| 2026-04-24 16:49 | 48.12836 | -32.30563 | 37728 ft | 472 kts | 257° |
| 2026-04-24 16:49 | 48.11190 | -32.40096 | 37733 ft | 473 kts | 257° |
| 2026-04-24 16:50 | 48.09533 | -32.49633 | 37727 ft | 474 kts | 257° |
| 2026-04-24 16:50 | 48.07867 | -32.59162 | 37729 ft | 474 kts | 257° |
| 2026-04-24 16:51 | 48.06191 | -32.68689 | 37733 ft | 473 kts | 258° |
| 2026-04-24 16:51 | 48.04525 | -32.78125 | 37733 ft | 472 kts | 257° |
| 2026-04-24 16:52 | 48.02843 | -32.87606 | 37727 ft | 472 kts | 257° |
| 2026-04-24 16:52 | 48.01152 | -32.97082 | 37735 ft | 471 kts | 257° |
| 2026-04-24 16:53 | 47.99457 | -33.06521 | 37737 ft | 470 kts | 257° |
| 2026-04-24 16:53 | 47.97756 | -33.15950 | 37736 ft | 469 kts | 257° |
| 2026-04-24 16:54 | 47.96055 | -33.25335 | 37736 ft | 469 kts | 257° |
| 2026-04-24 16:54 | 47.94346 | -33.34711 | 37744 ft | 468 kts | 257° |
| 2026-04-24 16:55 | 47.92642 | -33.44019 | 37742 ft | 467 kts | 257° |
| 2026-04-24 16:55 | 47.90922 | -33.53371 | 37742 ft | 468 kts | 257° |
| 2026-04-24 16:56 | 47.89190 | -33.62727 | 37742 ft | 468 kts | 257° |
| 2026-04-24 16:56 | 47.87449 | -33.72078 | 37742 ft | 468 kts | 257° |
| 2026-04-24 16:57 | 47.85701 | -33.81431 | 37745 ft | 468 kts | 256° |
| 2026-04-24 16:57 | 47.83948 | -33.90769 | 37743 ft | 468 kts | 257° |
| 2026-04-24 16:58 | 47.82196 | -34.00046 | 37741 ft | 468 kts | 257° |
| 2026-04-24 16:58 | 47.80424 | -34.09392 | 37753 ft | 469 kts | 257° |
| 2026-04-24 16:59 | 47.78644 | -34.18731 | 37744 ft | 468 kts | 257° |
| 2026-04-24 17:00 | 47.75964 | -34.32698 | 37747 ft | 467 kts | 257° |
| 2026-04-24 17:00 | 47.73289 | -34.46546 | 37746 ft | 466 kts | 257° |
| 2026-04-24 17:01 | 47.70596 | -34.60381 | 37750 ft | 464 kts | 256° |
| 2026-04-24 17:02 | 47.67896 | -34.74149 | 37747 ft | 463 kts | 256° |
| 2026-04-24 17:02 | 47.66090 | -34.83308 | 37765 ft | 462 kts | 256° |
| 2026-04-24 17:03 | 47.63371 | -34.97018 | 37763 ft | 461 kts | 256° |
| 2026-04-24 17:04 | 47.61553 | -35.06125 | 37756 ft | 461 kts | 256° |
| 2026-04-24 17:04 | 47.58811 | -35.19789 | 37757 ft | 460 kts | 256° |
| 2026-04-24 17:05 | 47.56989 | -35.28817 | 37760 ft | 460 kts | 256° |
| 2026-04-24 17:06 | 47.54228 | -35.42417 | 37760 ft | 460 kts | 256° |
| 2026-04-24 17:06 | 47.51451 | -35.56000 | 37762 ft | 459 kts | 256° |
| 2026-04-24 17:07 | 47.49599 | -35.65027 | 37750 ft | 454 kts | 252° |
| 2026-04-24 17:08 | 47.45934 | -35.82724 | 37767 ft | 451 kts | 252° |
| 2026-04-24 17:08 | 47.44090 | -35.91573 | 37767 ft | 451 kts | 252° |
| 2026-04-24 17:09 | 47.40376 | -36.09282 | 37776 ft | 452 kts | 252° |
| 2026-04-24 17:10 | 47.36624 | -36.27021 | 37781 ft | 453 kts | 252° |
| 2026-04-24 17:12 | 47.29036 | -36.62426 | 37783 ft | 454 kts | 252° |
| 2026-04-24 18:54 | 41.81846 | -52.67330 | 39465 ft | 427 kts | 238° |
| 2026-04-24 18:55 | 41.77126 | -52.77527 | 39486 ft | 430 kts | 238° |
| 2026-04-24 18:56 | 41.73964 | -52.84338 | 39497 ft | 432 kts | 238° |
| 2026-04-24 18:56 | 41.70856 | -52.91019 | 39502 ft | 422 kts | 238° |
| 2026-04-24 18:57 | 41.67731 | -52.97723 | 39517 ft | 427 kts | 238° |
| 2026-04-24 18:57 | 41.64574 | -53.04481 | 39519 ft | 428 kts | 238° |
| 2026-04-24 18:58 | 41.61403 | -53.11254 | 39525 ft | 429 kts | 238° |
| 2026-04-24 18:58 | 41.58227 | -53.18021 | 39535 ft | 430 kts | 238° |
| 2026-04-24 18:59 | 41.55040 | -53.24792 | 39535 ft | 428 kts | 238° |
| 2026-04-24 18:59 | 41.51882 | -53.31488 | 39551 ft | 428 kts | 238° |
| 2026-04-24 19:00 | 41.49232 | -53.37101 | 39563 ft | 434 kts | 238° |
| 2026-04-24 19:00 | 41.45498 | -53.44988 | 39552 ft | 429 kts | 238° |
| 2026-04-24 19:01 | 41.42300 | -53.51725 | 39571 ft | 432 kts | 238° |
| 2026-04-24 19:01 | 41.39066 | -53.58526 | 39570 ft | 432 kts | 238° |
| 2026-04-24 19:02 | 41.36388 | -53.64142 | 39585 ft | 433 kts | 238° |
| 2026-04-24 19:02 | 41.32602 | -53.72064 | 39592 ft | 432 kts | 239° |
| 2026-04-24 19:03 | 41.29355 | -53.78847 | 39599 ft | 435 kts | 238° |
| 2026-04-24 19:03 | 41.26131 | -53.85564 | 39603 ft | 431 kts | 238° |
| 2026-04-24 19:04 | 41.22869 | -53.92350 | 39608 ft | 435 kts | 239° |
| 2026-04-24 19:04 | 41.19633 | -53.99063 | 39613 ft | 437 kts | 239° |
| 2026-04-24 19:05 | 41.16343 | -54.05872 | 39614 ft | 437 kts | 238° |
| 2026-04-24 19:05 | 41.13047 | -54.12680 | 39614 ft | 438 kts | 239° |
| 2026-04-24 19:06 | 41.09748 | -54.19475 | 39624 ft | 439 kts | 239° |
| 2026-04-24 19:06 | 41.06429 | -54.26296 | 39627 ft | 441 kts | 238° |
| 2026-04-24 19:07 | 41.03092 | -54.33147 | 39634 ft | 445 kts | 239° |
| 2026-04-24 19:07 | 41.00288 | -54.38891 | 39640 ft | 449 kts | 239° |
| 2026-04-24 19:08 | 40.96332 | -54.46975 | 39639 ft | 451 kts | 239° |
| 2026-04-24 19:08 | 40.92903 | -54.53961 | 39642 ft | 451 kts | 239° |
| 2026-04-24 19:09 | 40.89488 | -54.60901 | 39649 ft | 450 kts | 239° |
| 2026-04-24 19:09 | 40.86077 | -54.67818 | 39649 ft | 448 kts | 239° |
| 2026-04-24 19:10 | 40.82677 | -54.74698 | 39651 ft | 446 kts | 238° |
| 2026-04-24 19:10 | 40.79292 | -54.81536 | 39661 ft | 443 kts | 239° |
| 2026-04-24 19:11 | 40.75917 | -54.88342 | 39665 ft | 442 kts | 239° |
| 2026-04-24 19:11 | 40.72554 | -54.95102 | 39674 ft | 441 kts | 239° |
| 2026-04-24 19:12 | 40.69188 | -55.01855 | 39672 ft | 440 kts | 239° |
| 2026-04-24 19:12 | 40.66388 | -55.07463 | 39669 ft | 441 kts | 239° |
| 2026-04-24 19:13 | 40.63585 | -55.13069 | 39686 ft | 441 kts | 239° |
| 2026-04-24 19:13 | 40.59084 | -55.22043 | 39690 ft | 441 kts | 239° |
| 2026-04-24 19:14 | 40.56245 | -55.27687 | 39692 ft | 442 kts | 239° |
| 2026-04-24 19:14 | 40.52849 | -55.34431 | 39691 ft | 442 kts | 239° |
| 2026-04-24 19:15 | 40.49472 | -55.41124 | 39692 ft | 442 kts | 239° |
| 2026-04-24 19:15 | 40.46068 | -55.47855 | 39697 ft | 442 kts | 239° |
| 2026-04-24 19:16 | 40.40950 | -55.57943 | 39703 ft | 442 kts | 239° |
| 2026-04-24 19:16 | 40.37531 | -55.64664 | 39706 ft | 442 kts | 239° |
| 2026-04-24 19:17 | 40.34115 | -55.71366 | 39706 ft | 442 kts | 239° |
| 2026-04-24 19:17 | 40.30694 | -55.78062 | 39710 ft | 442 kts | 239° |
| 2026-04-24 19:18 | 40.27275 | -55.84746 | 39710 ft | 441 kts | 239° |
| 2026-04-24 19:18 | 40.23853 | -55.91419 | 39714 ft | 441 kts | 239° |
| 2026-04-24 19:19 | 40.20450 | -55.98034 | 39713 ft | 441 kts | 239° |
| 2026-04-24 19:19 | 40.17025 | -56.04687 | 39722 ft | 440 kts | 239° |
| 2026-04-24 19:20 | 40.13597 | -56.11332 | 39724 ft | 440 kts | 239° |
| 2026-04-24 19:20 | 40.10174 | -56.17945 | 39721 ft | 439 kts | 239° |
| 2026-04-24 19:21 | 40.06748 | -56.24556 | 39730 ft | 439 kts | 239° |
| 2026-04-24 19:21 | 40.03324 | -56.31148 | 39729 ft | 438 kts | 239° |
| 2026-04-24 19:22 | 39.99903 | -56.37718 | 39735 ft | 437 kts | 239° |
| 2026-04-24 19:22 | 39.96478 | -56.44281 | 39737 ft | 437 kts | 239° |
| 2026-04-24 19:23 | 39.93080 | -56.50782 | 39741 ft | 437 kts | 239° |
| 2026-04-24 19:23 | 39.89656 | -56.57320 | 39743 ft | 437 kts | 239° |
| 2026-04-24 19:24 | 39.86225 | -56.63856 | 39748 ft | 437 kts | 239° |
| 2026-04-24 19:24 | 39.82796 | -56.70375 | 39743 ft | 437 kts | 239° |
| 2026-04-24 19:25 | 39.79358 | -56.76895 | 39753 ft | 437 kts | 239° |
| 2026-04-24 19:25 | 39.75920 | -56.83405 | 39755 ft | 437 kts | 239° |
| 2026-04-24 19:26 | 39.72475 | -56.89915 | 39754 ft | 437 kts | 239° |
| 2026-04-24 19:26 | 39.69023 | -56.96423 | 39754 ft | 437 kts | 239° |
| 2026-04-24 19:27 | 39.65588 | -57.02888 | 39756 ft | 437 kts | 239° |
| 2026-04-24 19:27 | 39.62129 | -57.09386 | 39768 ft | 438 kts | 239° |
| 2026-04-24 19:28 | 39.58665 | -57.15875 | 39759 ft | 438 kts | 239° |
| 2026-04-24 19:28 | 39.55191 | -57.22372 | 39764 ft | 438 kts | 239° |
| 2026-04-24 19:29 | 39.49976 | -57.32098 | 39764 ft | 438 kts | 239° |
| 2026-04-24 19:30 | 39.46496 | -57.38575 | 39762 ft | 438 kts | 239° |
| 2026-04-24 19:30 | 39.43018 | -57.45036 | 39765 ft | 437 kts | 239° |
| 2026-04-24 19:31 | 39.39554 | -57.51455 | 39769 ft | 437 kts | 239° |
| 2026-04-24 19:31 | 39.36071 | -57.57895 | 39767 ft | 437 kts | 239° |
| 2026-04-24 19:32 | 39.32587 | -57.64328 | 39765 ft | 436 kts | 239° |
| 2026-04-24 19:32 | 39.29126 | -57.70704 | 39770 ft | 436 kts | 239° |
| 2026-04-24 19:33 | 39.25619 | -57.77148 | 39772 ft | 435 kts | 239° |
| 2026-04-24 19:33 | 39.22160 | -57.83496 | 39774 ft | 435 kts | 239° |
| 2026-04-24 19:34 | 39.18676 | -57.89877 | 39775 ft | 435 kts | 239° |
| 2026-04-24 19:34 | 39.15192 | -57.96243 | 39777 ft | 434 kts | 239° |
| 2026-04-24 19:35 | 39.11706 | -58.02601 | 39777 ft | 434 kts | 239° |
| 2026-04-24 19:35 | 39.08217 | -58.08948 | 39779 ft | 434 kts | 239° |
| 2026-04-24 19:36 | 39.04733 | -58.15278 | 39778 ft | 433 kts | 239° |
| 2026-04-24 19:36 | 39.01246 | -58.21599 | 39779 ft | 433 kts | 239° |
| 2026-04-24 19:37 | 38.97757 | -58.27908 | 39783 ft | 433 kts | 239° |
| 2026-04-24 19:37 | 38.94267 | -58.34213 | 39783 ft | 432 kts | 239° |
| 2026-04-24 19:38 | 38.90776 | -58.40509 | 39782 ft | 432 kts | 240° |
| 2026-04-24 19:38 | 38.87287 | -58.46786 | 39783 ft | 432 kts | 239° |
| 2026-04-24 19:39 | 38.83794 | -58.53057 | 39779 ft | 432 kts | 239° |
| 2026-04-24 19:39 | 38.80325 | -58.59273 | 39780 ft | 431 kts | 240° |
| 2026-04-24 19:40 | 38.76838 | -58.65508 | 39782 ft | 430 kts | 240° |
| 2026-04-24 19:40 | 38.73348 | -58.71737 | 39781 ft | 429 kts | 240° |
| 2026-04-24 19:41 | 38.69865 | -58.77942 | 39775 ft | 428 kts | 240° |
| 2026-04-24 19:41 | 38.66387 | -58.84128 | 39773 ft | 428 kts | 240° |
| 2026-04-24 19:42 | 38.62914 | -58.90294 | 39774 ft | 427 kts | 240° |
| 2026-04-24 19:42 | 38.59436 | -58.96453 | 39775 ft | 427 kts | 240° |
| 2026-04-24 19:43 | 38.55960 | -59.02598 | 39786 ft | 427 kts | 240° |
| 2026-04-24 19:43 | 38.52477 | -59.08746 | 39781 ft | 427 kts | 240° |
| 2026-04-24 19:44 | 38.49014 | -59.14850 | 39778 ft | 427 kts | 240° |
| 2026-04-24 19:44 | 38.45525 | -59.20985 | 39775 ft | 427 kts | 240° |
| 2026-04-24 19:45 | 38.42024 | -59.27128 | 39776 ft | 427 kts | 240° |
| 2026-04-24 19:45 | 38.38518 | -59.33269 | 39774 ft | 427 kts | 240° |
| 2026-04-24 19:46 | 38.35036 | -59.39356 | 39771 ft | 427 kts | 240° |
| 2026-04-24 19:46 | 38.31526 | -59.45481 | 39771 ft | 427 kts | 240° |
| 2026-04-24 19:47 | 38.28018 | -59.51590 | 39770 ft | 427 kts | 240° |
| 2026-04-24 19:47 | 38.24510 | -59.57689 | 39776 ft | 427 kts | 240° |
| 2026-04-24 19:48 | 38.20997 | -59.63785 | 39767 ft | 427 kts | 240° |
| 2026-04-24 19:48 | 38.15727 | -59.72911 | 39771 ft | 427 kts | 240° |
| 2026-04-24 19:49 | 38.08685 | -59.85066 | 39772 ft | 426 kts | 240° |
| 2026-04-24 19:50 | 38.01662 | -59.97134 | 39777 ft | 427 kts | 239° |
| 2026-04-24 19:51 | 37.95363 | -60.05329 | 39779 ft | 437 kts | 229° |
| 2026-04-24 19:52 | 37.88528 | -60.12969 | 39771 ft | 436 kts | 229° |
| 2026-04-24 19:52 | 37.83987 | -60.18060 | 39775 ft | 436 kts | 229° |
| 2026-04-24 19:53 | 37.79455 | -60.23147 | 39773 ft | 435 kts | 229° |
| 2026-04-24 19:54 | 37.72664 | -60.30772 | 39777 ft | 435 kts | 229° |
| 2026-04-24 19:54 | 37.68145 | -60.35832 | 39776 ft | 434 kts | 229° |
| 2026-04-24 19:55 | 37.65156 | -60.39175 | 39779 ft | 434 kts | 229° |
| 2026-04-24 19:55 | 37.59110 | -60.45922 | 39785 ft | 433 kts | 229° |
| 2026-04-24 19:56 | 37.54635 | -60.50908 | 39785 ft | 432 kts | 229° |
| 2026-04-24 19:56 | 37.50127 | -60.55922 | 39792 ft | 432 kts | 229° |
| 2026-04-24 19:57 | 37.45624 | -60.60922 | 39796 ft | 431 kts | 229° |
| 2026-04-24 19:57 | 37.41125 | -60.65909 | 39794 ft | 431 kts | 229° |
| 2026-04-24 19:58 | 37.36629 | -60.70883 | 39791 ft | 430 kts | 229° |
| 2026-04-24 19:58 | 37.32130 | -60.75855 | 39794 ft | 430 kts | 229° |
| 2026-04-24 19:59 | 37.27637 | -60.80811 | 39788 ft | 430 kts | 229° |
| 2026-04-24 19:59 | 37.23145 | -60.85756 | 39796 ft | 429 kts | 229° |
| 2026-04-24 20:00 | 37.19416 | -60.89858 | 39807 ft | 429 kts | 229° |
| 2026-04-24 20:00 | 37.14191 | -60.95593 | 39800 ft | 429 kts | 229° |
| 2026-04-24 20:01 | 37.09696 | -61.00517 | 39800 ft | 429 kts | 229° |
| 2026-04-24 20:01 | 37.05202 | -61.05433 | 39799 ft | 429 kts | 229° |
| 2026-04-24 20:02 | 37.01437 | -61.09544 | 39798 ft | 429 kts | 229° |
| 2026-04-24 20:02 | 36.96944 | -61.14446 | 39799 ft | 428 kts | 229° |
| 2026-04-24 20:03 | 36.92445 | -61.19346 | 39800 ft | 428 kts | 229° |
| 2026-04-24 20:03 | 36.87979 | -61.24199 | 39797 ft | 428 kts | 229° |
| 2026-04-24 20:04 | 36.83488 | -61.29071 | 39793 ft | 428 kts | 229° |
| 2026-04-24 20:04 | 36.78993 | -61.33944 | 39791 ft | 428 kts | 229° |
| 2026-04-24 20:05 | 36.74492 | -61.38815 | 39789 ft | 428 kts | 229° |
| 2026-04-24 20:05 | 36.69998 | -61.43667 | 39795 ft | 427 kts | 229° |
| 2026-04-24 20:06 | 36.65488 | -61.48530 | 39784 ft | 428 kts | 229° |
| 2026-04-24 20:06 | 36.60988 | -61.53376 | 39799 ft | 427 kts | 229° |
| 2026-04-24 20:07 | 36.57245 | -61.57401 | 39788 ft | 428 kts | 229° |
| 2026-04-24 20:07 | 36.52008 | -61.63023 | 39789 ft | 428 kts | 229° |
| 2026-04-24 20:08 | 36.47505 | -61.67845 | 39780 ft | 427 kts | 229° |
| 2026-04-24 20:08 | 36.42991 | -61.72675 | 39780 ft | 427 kts | 229° |
| 2026-04-24 20:09 | 36.38488 | -61.77483 | 39780 ft | 426 kts | 229° |
| 2026-04-24 20:09 | 36.34018 | -61.82251 | 39782 ft | 426 kts | 229° |
| 2026-04-24 20:10 | 36.29512 | -61.87050 | 39777 ft | 426 kts | 229° |
| 2026-04-24 20:10 | 36.25011 | -61.91835 | 39771 ft | 426 kts | 229° |
| 2026-04-24 20:11 | 36.20512 | -61.96612 | 39769 ft | 426 kts | 229° |
| 2026-04-24 20:11 | 36.16013 | -62.01380 | 39769 ft | 425 kts | 229° |
| 2026-04-24 20:12 | 36.11521 | -62.06132 | 39767 ft | 425 kts | 229° |
| 2026-04-24 20:12 | 36.07025 | -62.10882 | 39769 ft | 425 kts | 229° |
| 2026-04-24 20:13 | 36.02533 | -62.15619 | 39764 ft | 424 kts | 229° |
| 2026-04-24 20:13 | 35.98072 | -62.20318 | 39761 ft | 424 kts | 229° |
| 2026-04-24 20:14 | 35.93584 | -62.25037 | 39768 ft | 424 kts | 229° |
| 2026-04-24 20:14 | 35.89085 | -62.29762 | 39788 ft | 426 kts | 229° |
| 2026-04-24 20:15 | 35.84548 | -62.34521 | 39766 ft | 430 kts | 229° |
| 2026-04-24 20:15 | 35.79984 | -62.39295 | 39770 ft | 428 kts | 229° |
| 2026-04-24 20:16 | 35.75458 | -62.44019 | 39768 ft | 424 kts | 229° |
| 2026-04-24 20:16 | 35.70969 | -62.48701 | 39766 ft | 421 kts | 229° |
| 2026-04-24 20:17 | 35.66540 | -62.53316 | 39759 ft | 419 kts | 228° |
| 2026-04-24 20:17 | 35.59881 | -62.60242 | 39764 ft | 417 kts | 228° |
| 2026-04-24 20:18 | 35.55449 | -62.64844 | 39770 ft | 417 kts | 228° |
| 2026-04-24 20:18 | 35.51007 | -62.69449 | 39771 ft | 418 kts | 228° |
| 2026-04-24 20:19 | 35.46552 | -62.74061 | 39772 ft | 419 kts | 228° |
| 2026-04-24 20:19 | 35.42081 | -62.78681 | 39776 ft | 421 kts | 228° |
| 2026-04-24 20:20 | 35.37593 | -62.83310 | 39778 ft | 422 kts | 228° |
| 2026-04-24 20:20 | 35.33095 | -62.87944 | 39787 ft | 423 kts | 228° |
| 2026-04-24 20:21 | 35.28586 | -62.92581 | 39788 ft | 423 kts | 228° |
| 2026-04-24 20:21 | 35.24078 | -62.97211 | 39783 ft | 423 kts | 228° |
| 2026-04-24 20:22 | 35.19596 | -63.01806 | 39777 ft | 423 kts | 228° |
| 2026-04-24 20:22 | 35.15095 | -63.06417 | 39778 ft | 422 kts | 227° |
| 2026-04-24 20:23 | 35.10596 | -63.11018 | 39780 ft | 421 kts | 228° |
| 2026-04-24 20:23 | 35.06103 | -63.15613 | 39784 ft | 420 kts | 228° |
| 2026-04-24 20:24 | 35.01738 | -63.20274 | 39785 ft | 418 kts | 229° |
| 2026-04-24 20:24 | 34.97388 | -63.24999 | 39789 ft | 418 kts | 229° |
| 2026-04-24 20:25 | 34.93034 | -63.29705 | 39794 ft | 418 kts | 229° |
| 2026-04-24 20:25 | 34.88663 | -63.34405 | 39794 ft | 419 kts | 229° |
| 2026-04-24 20:26 | 34.84286 | -63.39098 | 39798 ft | 419 kts | 229° |
| 2026-04-24 20:26 | 34.79913 | -63.43780 | 39803 ft | 419 kts | 229° |
| 2026-04-24 20:27 | 34.75528 | -63.48467 | 39805 ft | 419 kts | 229° |
| 2026-04-24 20:27 | 34.71170 | -63.53120 | 39801 ft | 420 kts | 229° |
| 2026-04-24 20:28 | 34.66779 | -63.57801 | 39808 ft | 420 kts | 229° |
| 2026-04-24 20:28 | 34.62388 | -63.62475 | 39806 ft | 420 kts | 229° |
| 2026-04-24 20:29 | 34.57994 | -63.67145 | 39805 ft | 420 kts | 229° |
| 2026-04-24 20:29 | 34.53595 | -63.71816 | 39811 ft | 420 kts | 229° |
| 2026-04-24 20:30 | 34.49195 | -63.76481 | 39812 ft | 419 kts | 229° |
| 2026-04-24 20:30 | 34.44797 | -63.81134 | 39821 ft | 420 kts | 229° |
| 2026-04-24 20:31 | 34.40426 | -63.85752 | 39821 ft | 420 kts | 229° |
| 2026-04-24 20:31 | 34.36018 | -63.90402 | 39822 ft | 419 kts | 229° |
| 2026-04-24 20:32 | 34.31619 | -63.95038 | 39829 ft | 419 kts | 229° |
| 2026-04-24 20:32 | 34.27208 | -63.99682 | 39834 ft | 419 kts | 228° |
| 2026-04-24 20:33 | 34.22805 | -64.04310 | 39834 ft | 419 kts | 228° |
| 2026-04-24 20:33 | 34.18395 | -64.08938 | 39834 ft | 419 kts | 228° |
| 2026-04-24 20:34 | 34.13988 | -64.13557 | 39842 ft | 419 kts | 228° |
| 2026-04-24 20:34 | 34.09578 | -64.18172 | 39842 ft | 420 kts | 228° |
| 2026-04-24 20:35 | 34.05166 | -64.22783 | 39848 ft | 420 kts | 228° |
| 2026-04-24 20:35 | 34.00745 | -64.27396 | 39848 ft | 420 kts | 228° |
| 2026-04-24 20:36 | 33.96309 | -64.32023 | 39298 ft | 428 kts | 228° |
| 2026-04-24 20:36 | 33.94093 | -64.34331 | 38699 ft | 425 kts | 228° |
| 2026-04-24 20:36 | 33.91853 | -64.36659 | 37908 ft | 424 kts | 228° |
| 2026-04-24 20:37 | 33.89633 | -64.38962 | 37284 ft | 419 kts | 228° |
| 2026-04-24 20:37 | 33.87439 | -64.41235 | 36733 ft | 413 kts | 228° |
| 2026-04-24 20:37 | 33.85276 | -64.43477 | 36218 ft | 408 kts | 228° |
| 2026-04-24 20:37 | 33.83131 | -64.45701 | 35714 ft | 404 kts | 228° |
| 2026-04-24 20:38 | 33.81014 | -64.47895 | 35237 ft | 400 kts | 228° |
| 2026-04-24 20:38 | 33.78919 | -64.50073 | 34692 ft | 397 kts | 228° |
| 2026-04-24 20:38 | 33.76863 | -64.52210 | 34224 ft | 393 kts | 228° |
| 2026-04-24 20:38 | 33.74797 | -64.54346 | 33731 ft | 390 kts | 228° |
| 2026-04-24 20:39 | 33.72749 | -64.56459 | 33197 ft | 386 kts | 228° |
| 2026-04-24 20:39 | 33.70716 | -64.58557 | 32704 ft | 383 kts | 228° |
| 2026-04-24 20:39 | 33.68709 | -64.60628 | 32227 ft | 379 kts | 228° |
| 2026-04-24 20:39 | 33.66718 | -64.62681 | 31773 ft | 375 kts | 228° |
| 2026-04-24 20:40 | 33.64744 | -64.64719 | 31300 ft | 372 kts | 228° |
| 2026-04-24 20:40 | 33.62790 | -64.66735 | 30844 ft | 369 kts | 228° |
| 2026-04-24 20:40 | 33.60847 | -64.68738 | 30398 ft | 366 kts | 228° |
| 2026-04-24 20:40 | 33.58943 | -64.70699 | 29958 ft | 364 kts | 228° |
| 2026-04-24 20:41 | 33.57003 | -64.72694 | 29410 ft | 362 kts | 228° |
| 2026-04-24 20:41 | 33.55112 | -64.74637 | 28901 ft | 361 kts | 228° |
| 2026-04-24 20:41 | 33.53214 | -64.76584 | 28412 ft | 358 kts | 228° |
| 2026-04-24 20:41 | 33.51325 | -64.78521 | 27914 ft | 356 kts | 228° |
| 2026-04-24 20:42 | 33.49448 | -64.80446 | 27451 ft | 354 kts | 228° |
| 2026-04-24 20:42 | 33.47581 | -64.82360 | 27023 ft | 352 kts | 227° |
| 2026-04-24 20:42 | 33.45712 | -64.84277 | 26568 ft | 356 kts | 227° |
| 2026-04-24 20:42 | 33.43835 | -64.86202 | 26093 ft | 355 kts | 227° |
| 2026-04-24 20:43 | 33.41962 | -64.88120 | 25629 ft | 353 kts | 227° |
| 2026-04-24 20:43 | 33.40098 | -64.90026 | 25183 ft | 352 kts | 227° |
| 2026-04-24 20:43 | 33.38242 | -64.91922 | 24738 ft | 350 kts | 227° |
| 2026-04-24 20:43 | 33.36388 | -64.93817 | 24303 ft | 349 kts | 227° |
| 2026-04-24 20:44 | 33.34546 | -64.95698 | 23858 ft | 348 kts | 227° |
| 2026-04-24 20:44 | 33.32704 | -64.97578 | 23415 ft | 347 kts | 227° |
| 2026-04-24 20:44 | 33.30872 | -64.99447 | 22926 ft | 345 kts | 227° |
| 2026-04-24 20:44 | 33.29052 | -65.01303 | 22476 ft | 343 kts | 227° |
| 2026-04-24 20:45 | 33.27246 | -65.03143 | 22032 ft | 340 kts | 227° |
| 2026-04-24 20:45 | 33.25453 | -65.04968 | 21632 ft | 337 kts | 227° |
| 2026-04-24 20:45 | 33.23679 | -65.06774 | 21252 ft | 333 kts | 227° |
| 2026-04-24 20:45 | 33.21945 | -65.08538 | 20906 ft | 329 kts | 227° |
| 2026-04-24 20:46 | 33.20184 | -65.10328 | 20512 ft | 327 kts | 227° |
| 2026-04-24 20:46 | 33.18483 | -65.12059 | 20141 ft | 325 kts | 226° |
| 2026-04-24 20:46 | 33.16769 | -65.13801 | 19758 ft | 323 kts | 226° |
| 2026-04-24 20:46 | 33.15059 | -65.15540 | 19301 ft | 323 kts | 226° |
| 2026-04-24 20:47 | 33.13347 | -65.17279 | 18867 ft | 324 kts | 226° |
| 2026-04-24 20:47 | 33.11630 | -65.19019 | 18421 ft | 324 kts | 226° |
| 2026-04-24 20:47 | 33.09855 | -65.20667 | 17915 ft | 326 kts | 215° |
| 2026-04-24 20:47 | 33.07679 | -65.21559 | 17485 ft | 338 kts | 194° |
| 2026-04-24 20:48 | 33.05304 | -65.21470 | 17104 ft | 349 kts | 173° |
| 2026-04-24 20:48 | 33.03010 | -65.20411 | 16664 ft | 361 kts | 153° |
| 2026-04-24 20:48 | 33.01103 | -65.18432 | 16127 ft | 367 kts | 137° |
| 2026-04-24 20:48 | 32.99347 | -65.16187 | 15676 ft | 371 kts | 136° |
| 2026-04-24 20:49 | 32.97619 | -65.13923 | 15390 ft | 368 kts | 135° |
| 2026-04-24 20:49 | 32.96485 | -65.12432 | 15236 ft | 365 kts | 135° |
| 2026-04-24 20:49 | 32.94780 | -65.10204 | 14962 ft | 363 kts | 135° |
| 2026-04-24 20:49 | 32.93077 | -65.07998 | 14649 ft | 361 kts | 136° |
| 2026-04-24 20:50 | 32.91376 | -65.05812 | 14349 ft | 360 kts | 136° |
| 2026-04-24 20:50 | 32.89674 | -65.03636 | 14051 ft | 358 kts | 136° |
| 2026-04-24 20:50 | 32.87980 | -65.01479 | 13757 ft | 356 kts | 136° |
| 2026-04-24 20:50 | 32.86294 | -64.99336 | 13466 ft | 354 kts | 136° |
| 2026-04-24 20:51 | 32.84618 | -64.97209 | 13149 ft | 352 kts | 136° |
| 2026-04-24 20:51 | 32.82946 | -64.95091 | 12816 ft | 349 kts | 136° |
| 2026-04-24 20:51 | 32.81293 | -64.92997 | 12405 ft | 346 kts | 136° |
| 2026-04-24 20:51 | 32.79644 | -64.90909 | 11989 ft | 345 kts | 136° |
| 2026-04-24 20:52 | 32.78004 | -64.88836 | 11568 ft | 343 kts | 136° |
| 2026-04-24 20:52 | 32.76395 | -64.86802 | 11158 ft | 342 kts | 136° |
| 2026-04-24 20:52 | 32.74770 | -64.84750 | 10748 ft | 340 kts | 136° |
| 2026-04-24 20:52 | 32.73151 | -64.82705 | 10356 ft | 338 kts | 136° |
| 2026-04-24 20:53 | 32.71565 | -64.80703 | 10204 ft | 328 kts | 136° |
| 2026-04-24 20:53 | 32.70022 | -64.78754 | 10062 ft | 318 kts | 136° |
| 2026-04-24 20:53 | 32.68524 | -64.76864 | 9828 ft | 313 kts | 136° |
| 2026-04-24 20:53 | 32.67032 | -64.74987 | 9470 ft | 312 kts | 136° |
| 2026-04-24 20:54 | 32.65549 | -64.73120 | 9135 ft | 310 kts | 136° |
| 2026-04-24 20:54 | 32.64072 | -64.71263 | 8799 ft | 308 kts | 136° |
| 2026-04-24 20:54 | 32.62607 | -64.69419 | 8465 ft | 307 kts | 136° |
| 2026-04-24 20:54 | 32.61144 | -64.67581 | 8135 ft | 305 kts | 136° |
| 2026-04-24 20:55 | 32.59690 | -64.65754 | 7823 ft | 304 kts | 136° |
| 2026-04-24 20:55 | 32.58248 | -64.63942 | 7605 ft | 298 kts | 136° |
| 2026-04-24 20:55 | 32.56843 | -64.62178 | 7498 ft | 289 kts | 136° |
| 2026-04-24 20:55 | 32.55484 | -64.60471 | 7383 ft | 281 kts | 136° |
| 2026-04-24 20:56 | 32.54161 | -64.58811 | 7247 ft | 274 kts | 136° |
| 2026-04-24 20:56 | 32.52875 | -64.57198 | 7012 ft | 271 kts | 136° |
| 2026-04-24 20:56 | 32.51591 | -64.55589 | 6766 ft | 265 kts | 136° |
| 2026-04-24 20:56 | 32.50322 | -64.54000 | 6232 ft | 267 kts | 137° |
| 2026-04-24 20:57 | 32.49047 | -64.52405 | 5768 ft | 265 kts | 137° |
| 2026-04-24 20:57 | 32.47812 | -64.50796 | 5295 ft | 264 kts | 135° |
| 2026-04-24 20:57 | 32.46590 | -64.49154 | 5011 ft | 265 kts | 135° |
| 2026-04-24 20:57 | 32.45380 | -64.47526 | 4842 ft | 260 kts | 135° |
| 2026-04-24 20:58 | 32.44201 | -64.45943 | 4732 ft | 253 kts | 136° |
| 2026-04-24 20:58 | 32.43017 | -64.44478 | 4591 ft | 236 kts | 150° |
| 2026-04-24 20:58 | 32.41572 | -64.43915 | 4345 ft | 210 kts | 192° |
| 2026-04-24 20:58 | 32.40207 | -64.44242 | 4181 ft | 198 kts | 199° |
| 2026-04-24 20:59 | 32.38875 | -64.44580 | 3981 ft | 192 kts | 199° |
| 2026-04-24 20:59 | 32.37603 | -64.44897 | 3782 ft | 188 kts | 200° |
| 2026-04-24 20:59 | 32.36333 | -64.45214 | 3559 ft | 185 kts | 200° |
| 2026-04-24 20:59 | 32.35096 | -64.45535 | 3339 ft | 177 kts | 205° |
| 2026-04-24 21:00 | 32.34130 | -64.46248 | 3152 ft | 158 kts | 233° |
| 2026-04-24 21:00 | 32.33555 | -64.47305 | 2975 ft | 150 kts | 258° |
| 2026-04-24 21:00 | 32.33511 | -64.48511 | 2933 ft | 148 kts | 270° |
| 2026-04-24 21:00 | 32.33555 | -64.49714 | 2770 ft | 145 kts | 273° |
| 2026-04-24 21:01 | 32.33635 | -64.50899 | 2586 ft | 143 kts | 273° |
| 2026-04-24 21:01 | 32.33738 | -64.52041 | 2400 ft | 134 kts | 276° |
| 2026-04-24 21:01 | 32.33886 | -64.53103 | 2255 ft | 130 kts | 277° |
| 2026-04-24 21:01 | 32.34054 | -64.54159 | 2080 ft | 131 kts | 278° |
| 2026-04-24 21:02 | 32.34230 | -64.55211 | 1896 ft | 130 kts | 278° |
| 2026-04-24 21:02 | 32.34409 | -64.56252 | 1734 ft | 125 kts | 278° |
| 2026-04-24 21:02 | 32.34576 | -64.57228 | 1569 ft | 119 kts | 277° |
| 2026-04-24 21:02 | 32.34741 | -64.58189 | 1412 ft | 119 kts | 277° |
| 2026-04-24 21:03 | 32.34905 | -64.59144 | 1253 ft | 118 kts | 277° |
| 2026-04-24 21:03 | 32.35069 | -64.60101 | 1098 ft | 119 kts | 278° |
| 2026-04-24 21:03 | 32.35234 | -64.61068 | 942 ft | 121 kts | 278° |
| 2026-04-24 21:03 | 32.35398 | -64.62027 | 785 ft | 119 kts | 278° |
| 2026-04-24 21:04 | 32.35566 | -64.62989 | 637 ft | 119 kts | 277° |
| 2026-04-24 21:04 | 32.35729 | -64.63956 | 478 ft | 121 kts | 278° |
| 2026-04-24 21:04 | 32.35900 | -64.64943 | 332 ft | 124 kts | 279° |
| 2026-04-24 21:04 | 32.36076 | -64.65938 | 158 ft | 121 kts | 278° |
| 2026-04-24 21:05 | 32.36244 | -64.66896 | 42 ft | 115 kts | 277° |
| 2026-04-24 21:05 | 32.36375 | -64.67711 | 29 ft | 84 kts | 281° |
| 2026-04-24 21:05 | 32.36467 | -64.68248 | 33 ft | 49 kts | 282° |
| 2026-04-24 21:05 | 32.36516 | -64.68532 | 33 ft | 30 kts | 282° |
| 2026-04-24 21:06 | 32.36559 | -64.68774 | 33 ft | 30 kts | 282° |
| 2026-04-24 21:06 | 32.36600 | -64.69014 | 31 ft | 29 kts | 281° |
| 2026-04-24 21:06 | 32.36616 | -64.69151 | 31 ft | 14 kts | 265° |
| 2026-04-24 21:06 | 32.36585 | -64.69260 | 32 ft | 14 kts | 248° |
| 2026-04-24 21:07 | 32.36547 | -64.69370 | 31 ft | 16 kts | 247° |
| 2026-04-24 21:07 | 32.36499 | -64.69503 | 30 ft | 18 kts | 247° |
| 2026-04-24 21:07 | 32.36446 | -64.69655 | 29 ft | 21 kts | 247° |
| 2026-04-24 21:07 | 32.36423 | -64.69718 | 29 ft | 8 kts | 247° |
| 2026-04-24 21:08 | 32.36399 | -64.69786 | 33 ft | 12 kts | 247° |
| 2026-04-24 21:08 | 32.36361 | -64.69891 | 33 ft | 14 kts | 247° |
| 2026-04-24 21:08 | 32.36324 | -64.69996 | 33 ft | 14 kts | 247° |
| 2026-04-24 21:08 | 32.36290 | -64.70093 | 33 ft | 9 kts | 247° |
| 2026-04-24 21:09 | 32.36267 | -64.70155 | 33 ft | 8 kts | 246° |
| 2026-04-24 21:09 | 32.36249 | -64.70202 | 33 ft | 4 kts | 247° |
| 2026-04-24 21:09 | 32.36234 | -64.70247 | 33 ft | 7 kts | 247° |
| 2026-04-24 21:09 | 32.36223 | -64.70277 | 33 ft | 3 kts | 247° |
| 2026-04-24 21:10 | 32.36221 | -64.70284 | 33 ft | 0 kts | 247° |